Terminal Aerodrome Forecast
Issued by NWS

Home | Current Version | Previous Version | Graphics & Text | Print | Product List | Glossary On
Versions: 1 2 3 4 5 6 7 8 9 10 11 12 13 14 15 16 17 18 19 20 21 22
180
FTUS43 KABR 302340
TAFATY
TAF
KATY 302340Z 3100/3124 17015KT P6SM SCT090 BKN200
     FM310500 20011KT P6SM -SHRA VCTS BKN080CB
      TEMPO 3105/3106 VRB30G40KT 3SM +TSRA BKN015CB
     FM310800 25009KT P6SM SCT100
     FM311600 25013KT P6SM SCT250=

USA.gov is the U.S. government's official web portal to all federal, state and local government web resources and services.